Rush Center, Kansas
Current Conditions -  °F | °C
As of 9:35 PM on Friday 31 Oct 2014 (Local Time) from KGBD Reporting Station
Clear Clear  
Wind Chill: 34°   Ceiling: Unl
Heat Index: 34°   Visibility: 10mi
Dew Point: 18°   Wind: 3mph
Humidity: 52%   Direction: 130°SE
Pressure: 30.41"   Gusts: NA
Location:  38.47°N, 99.31°W
Report Text: KGBD 010235Z AUTO 13003KT 10SM CLR 01/M08 A3041 RMK AO1
Loading
Personal Weather Stations






























Interactive Weather Map
Tropical Storm Tracking
New forecast layout! Learn more

10-Day Weather Forecast

Advertisements
Track Severe Weather on mobile